Terminal Aerodrome Forecast
Issued by NWS

Home | Current Version | Previous Version | Text Only | Print | Product List | Glossary On
Versions: 1 2 3 4 5 6 7 8 9 10 11 12 13
503
FTUS43 KGRR 091151
TAFBTL
TAF
KBTL 091151Z 0912/1012 33012KT P6SM -SHSN OVC012
      TEMPO 0912/0914 OVC008
     FM091600 32012G20KT 6SM -SHSN OVC012
     FM091900 31012G23KT 6SM -SHSN OVC015
     FM100200 32012G22KT 3SM -SHSN BR OVC010=

USA.gov is the U.S. government's official web portal to all federal, state and local government web resources and services.